sensor_id;sensor_type;location;lat;lon;timestamp;P1;durP1;ratioP1;P2;durP2;ratioP2
52031;SDS011;38044;45.148;39.604;2023-08-31T00:10:37;24.50;;;15.95;;
52031;SDS011;38044;45.148;39.604;2023-08-31T00:13:03;25.08;;;16.88;;
52031;SDS011;38044;45.148;39.604;2023-08-31T00:15:33;20.73;;;15.30;;
52031;SDS011;38044;45.148;39.604;2023-08-31T00:18:01;25.35;;;17.00;;
52031;SDS011;38044;45.148;39.604;2023-08-31T00:20:31;26.33;;;16.38;;
52031;SDS011;38044;45.148;39.604;2023-08-31T00:22:58;30.42;;;15.45;;
52031;SDS011;38044;45.148;39.604;2023-08-31T00:25:25;24.00;;;15.68;;
52031;SDS011;38044;45.148;39.604;2023-08-31T00:27:50;27.77;;;15.70;;
52031;SDS011;38044;45.148;39.604;2023-08-31T00:30:17;25.50;;;16.45;;
52031;SDS011;38044;45.148;39.604;2023-08-31T00:32:43;28.05;;;15.82;;
52031;SDS011;38044;45.148;39.604;2023-08-31T00:35:12;25.95;;;16.05;;
52031;SDS011;38044;45.148;39.604;2023-08-31T01:27:34;23.45;;;15.88;;
52031;SDS011;38044;45.148;39.604;2023-08-31T01:30:02;20.92;;;15.55;;
52031;SDS011;38044;45.148;39.604;2023-08-31T01:32:30;23.00;;;14.57;;
52031;SDS011;38044;45.148;39.604;2023-08-31T01:34:56;22.30;;;14.60;;
52031;SDS011;38044;45.148;39.604;2023-08-31T01:40:10;20.48;;;14.38;;
52031;SDS011;38044;45.148;39.604;2023-08-31T01:42:43;23.30;;;14.52;;
52031;SDS011;38044;45.148;39.604;2023-08-31T01:45:14;26.42;;;14.85;;
52031;SDS011;38044;45.148;39.604;2023-08-31T01:47:45;26.13;;;14.02;;
52031;SDS011;38044;45.148;39.604;2023-08-31T01:50:11;29.95;;;14.43;;
52031;SDS011;38044;45.148;39.604;2023-08-31T01:52:37;24.27;;;14.13;;
52031;SDS011;38044;45.148;39.604;2023-08-31T01:55:04;24.00;;;14.48;;
52031;SDS011;38044;45.148;39.604;2023-08-31T01:57:31;24.08;;;14.18;;
52031;SDS011;38044;45.148;39.604;2023-08-31T01:59:58;25.35;;;13.80;;
52031;SDS011;38044;45.148;39.604;2023-08-31T02:02:25;23.83;;;13.88;;
52031;SDS011;38044;45.148;39.604;2023-08-31T02:04:51;19.70;;;12.95;;
52031;SDS011;38044;45.148;39.604;2023-08-31T02:07:17;24.35;;;14.02;;
52031;SDS011;38044;45.148;39.604;2023-08-31T02:09:43;22.48;;;13.10;;
52031;SDS011;38044;45.148;39.604;2023-08-31T02:12:09;19.90;;;12.18;;
52031;SDS011;38044;45.148;39.604;2023-08-31T02:14:36;27.60;;;14.43;;
52031;SDS011;38044;45.148;39.604;2023-08-31T02:17:02;20.92;;;12.52;;
52031;SDS011;38044;45.148;39.604;2023-08-31T02:19:28;28.02;;;14.55;;
52031;SDS011;38044;45.148;39.604;2023-08-31T02:21:54;23.27;;;12.75;;
52031;SDS011;38044;45.148;39.604;2023-08-31T02:24:19;19.98;;;11.65;;
52031;SDS011;38044;45.148;39.604;2023-08-31T02:26:45;26.13;;;13.65;;
52031;SDS011;38044;45.148;39.604;2023-08-31T02:29:13;17.95;;;12.40;;
52031;SDS011;38044;45.148;39.604;2023-08-31T02:31:39;23.23;;;12.40;;
52031;SDS011;38044;45.148;39.604;2023-08-31T02:34:06;21.73;;;12.95;;
52031;SDS011;38044;45.148;39.604;2023-08-31T02:36:32;19.60;;;11.10;;
52031;SDS011;38044;45.148;39.604;2023-08-31T02:38:58;19.85;;;12.20;;
52031;SDS011;38044;45.148;39.604;2023-08-31T02:41:24;27.70;;;12.88;;
52031;SDS011;38044;45.148;39.604;2023-08-31T02:43:50;20.98;;;13.43;;
52031;SDS011;38044;45.148;39.604;2023-08-31T02:46:17;13.25;;;11.32;;
52031;SDS011;38044;45.148;39.604;2023-08-31T02:48:43;20.02;;;11.82;;
52031;SDS011;38044;45.148;39.604;2023-08-31T02:51:13;17.52;;;10.82;;
52031;SDS011;38044;45.148;39.604;2023-08-31T02:53:39;17.25;;;11.93;;
52031;SDS011;38044;45.148;39.604;2023-08-31T02:56:06;19.10;;;11.70;;
52031;SDS011;38044;45.148;39.604;2023-08-31T02:58:32;19.17;;;11.25;;
52031;SDS011;38044;45.148;39.604;2023-08-31T03:01:08;20.25;;;11.77;;
52031;SDS011;38044;45.148;39.604;2023-08-31T03:03:38;18.23;;;11.35;;
52031;SDS011;38044;45.148;39.604;2023-08-31T03:06:07;16.45;;;11.02;;
52031;SDS011;38044;45.148;39.604;2023-08-31T03:08:35;18.73;;;11.85;;
52031;SDS011;38044;45.148;39.604;2023-08-31T03:11:02;15.90;;;10.98;;
52031;SDS011;38044;45.148;39.604;2023-08-31T03:13:29;18.77;;;10.65;;
52031;SDS011;38044;45.148;39.604;2023-08-31T03:15:55;19.63;;;11.52;;
52031;SDS011;38044;45.148;39.604;2023-08-31T03:18:21;19.08;;;11.02;;
52031;SDS011;38044;45.148;39.604;2023-08-31T03:20:48;24.83;;;10.80;;
52031;SDS011;38044;45.148;39.604;2023-08-31T03:40:22;21.85;;;9.88;;
52031;SDS011;38044;45.148;39.604;2023-08-31T03:42:48;18.02;;;10.20;;
52031;SDS011;38044;45.148;39.604;2023-08-31T04:19:15;15.57;;;9.52;;
52031;SDS011;38044;45.148;39.604;2023-08-31T04:24:08;20.35;;;9.20;;
52031;SDS011;38044;45.148;39.604;2023-08-31T04:26:34;16.85;;;10.23;;
52031;SDS011;38044;45.148;39.604;2023-08-31T15:06:15;18.02;;;9.50;;
52031;SDS011;38044;45.148;39.604;2023-08-31T15:08:41;16.23;;;8.95;;
52031;SDS011;38044;45.148;39.604;2023-08-31T15:11:07;17.63;;;8.98;;
52031;SDS011;38044;45.148;39.604;2023-08-31T15:13:34;20.38;;;9.10;;
52031;SDS011;38044;45.148;39.604;2023-08-31T15:15:59;22.53;;;9.10;;
52031;SDS011;38044;45.148;39.604;2023-08-31T15:18:28;17.88;;;8.70;;
52031;SDS011;38044;45.148;39.604;2023-08-31T15:20:54;15.57;;;8.80;;
52031;SDS011;38044;45.148;39.604;2023-08-31T15:23:20;46.58;;;9.85;;
52031;SDS011;38044;45.148;39.604;2023-08-31T15:25:47;34.87;;;10.30;;
52031;SDS011;38044;45.148;39.604;2023-08-31T15:28:15;19.98;;;8.13;;
52031;SDS011;38044;45.148;39.604;2023-08-31T15:30:41;22.93;;;7.93;;
52031;SDS011;38044;45.148;39.604;2023-08-31T15:33:07;15.77;;;8.00;;
52031;SDS011;38044;45.148;39.604;2023-08-31T15:35:33;32.37;;;11.37;;
52031;SDS011;38044;45.148;39.604;2023-08-31T15:37:59;23.02;;;9.57;;
52031;SDS011;38044;45.148;39.604;2023-08-31T15:40:25;26.53;;;8.83;;
52031;SDS011;38044;45.148;39.604;2023-08-31T15:42:51;43.80;;;13.03;;
52031;SDS011;38044;45.148;39.604;2023-08-31T15:45:17;41.22;;;15.80;;
52031;SDS011;38044;45.148;39.604;2023-08-31T15:47:43;37.65;;;14.32;;
52031;SDS011;38044;45.148;39.604;2023-08-31T15:50:09;40.70;;;18.73;;
52031;SDS011;38044;45.148;39.604;2023-08-31T15:52:35;84.25;;;37.20;;
52031;SDS011;38044;45.148;39.604;2023-08-31T15:55:02;70.97;;;34.67;;
52031;SDS011;38044;45.148;39.604;2023-08-31T15:57:30;77.05;;;40.38;;
52031;SDS011;38044;45.148;39.604;2023-08-31T15:59:59;80.90;;;37.65;;
52031;SDS011;38044;45.148;39.604;2023-08-31T16:02:25;71.43;;;35.25;;
52031;SDS011;38044;45.148;39.604;2023-08-31T16:04:53;73.80;;;33.50;;
52031;SDS011;38044;45.148;39.604;2023-08-31T16:07:19;86.03;;;40.13;;
52031;SDS011;38044;45.148;39.604;2023-08-31T16:09:45;115.20;;;63.70;;
52031;SDS011;38044;45.148;39.604;2023-08-31T16:12:16;98.03;;;59.97;;
52031;SDS011;38044;45.148;39.604;2023-08-31T16:14:46;108.90;;;71.10;;
52031;SDS011;38044;45.148;39.604;2023-08-31T16:17:13;96.20;;;57.25;;
52031;SDS011;38044;45.148;39.604;2023-08-31T16:19:39;100.53;;;59.72;;
52031;SDS011;38044;45.148;39.604;2023-08-31T16:22:05;91.10;;;52.92;;
52031;SDS011;38044;45.148;39.604;2023-08-31T16:24:31;90.45;;;52.13;;
52031;SDS011;38044;45.148;39.604;2023-08-31T16:26:57;94.70;;;51.05;;
52031;SDS011;38044;45.148;39.604;2023-08-31T16:29:23;88.38;;;38.28;;
52031;SDS011;38044;45.148;39.604;2023-08-31T16:31:48;153.52;;;82.15;;
52031;SDS011;38044;45.148;39.604;2023-08-31T16:34:14;111.33;;;57.87;;
52031;SDS011;38044;45.148;39.604;2023-08-31T16:36:40;129.93;;;67.70;;
52031;SDS011;38044;45.148;39.604;2023-08-31T16:39:07;132.10;;;71.10;;
52031;SDS011;38044;45.148;39.604;2023-08-31T16:41:33;133.48;;;76.30;;
52031;SDS011;38044;45.148;39.604;2023-08-31T16:43:59;139.15;;;79.97;;
52031;SDS011;38044;45.148;39.604;2023-08-31T16:46:24;151.95;;;91.47;;
52031;SDS011;38044;45.148;39.604;2023-08-31T16:48:50;142.98;;;80.90;;
52031;SDS011;38044;45.148;39.604;2023-08-31T16:51:16;121.30;;;62.47;;
52031;SDS011;38044;45.148;39.604;2023-08-31T16:53:42;146.68;;;69.38;;
52031;SDS011;38044;45.148;39.604;2023-08-31T16:56:08;111.35;;;60.38;;
52031;SDS011;38044;45.148;39.604;2023-08-31T16:58:34;111.32;;;39.20;;
52031;SDS011;38044;45.148;39.604;2023-08-31T17:01:00;117.27;;;44.87;;
52031;SDS011;38044;45.148;39.604;2023-08-31T17:03:26;93.03;;;40.22;;
52031;SDS011;38044;45.148;39.604;2023-08-31T17:05:52;95.33;;;40.67;;
52031;SDS011;38044;45.148;39.604;2023-08-31T17:08:19;95.15;;;39.38;;
52031;SDS011;38044;45.148;39.604;2023-08-31T17:10:46;72.05;;;34.97;;
52031;SDS011;38044;45.148;39.604;2023-08-31T17:13:12;70.28;;;34.47;;
52031;SDS011;38044;45.148;39.604;2023-08-31T17:15:38;67.00;;;33.58;;
52031;SDS011;38044;45.148;39.604;2023-08-31T17:18:04;74.60;;;34.97;;
52031;SDS011;38044;45.148;39.604;2023-08-31T17:20:30;82.75;;;35.95;;
52031;SDS011;38044;45.148;39.604;2023-08-31T17:22:56;37.47;;;18.25;;
52031;SDS011;38044;45.148;39.604;2023-08-31T17:25:22;73.38;;;33.33;;
52031;SDS011;38044;45.148;39.604;2023-08-31T17:27:48;56.55;;;28.80;;
52031;SDS011;38044;45.148;39.604;2023-08-31T17:30:15;52.08;;;26.30;;
52031;SDS011;38044;45.148;39.604;2023-08-31T17:32:41;44.25;;;25.17;;
52031;SDS011;38044;45.148;39.604;2023-08-31T17:35:07;54.10;;;24.43;;
52031;SDS011;38044;45.148;39.604;2023-08-31T17:37:34;46.55;;;22.52;;
52031;SDS011;38044;45.148;39.604;2023-08-31T17:40:01;42.75;;;22.80;;
52031;SDS011;38044;45.148;39.604;2023-08-31T17:42:41;44.83;;;23.15;;
52031;SDS011;38044;45.148;39.604;2023-08-31T17:45:10;42.90;;;22.47;;
52031;SDS011;38044;45.148;39.604;2023-08-31T17:47:36;42.03;;;21.80;;
52031;SDS011;38044;45.148;39.604;2023-08-31T17:50:04;46.33;;;22.05;;
52031;SDS011;38044;45.148;39.604;2023-08-31T17:52:30;46.15;;;20.77;;
52031;SDS011;38044;45.148;39.604;2023-08-31T17:54:57;41.67;;;19.85;;
52031;SDS011;38044;45.148;39.604;2023-08-31T17:57:23;39.23;;;19.90;;
52031;SDS011;38044;45.148;39.604;2023-08-31T17:59:53;69.30;;;24.27;;
52031;SDS011;38044;45.148;39.604;2023-08-31T18:02:19;58.40;;;22.23;;
52031;SDS011;38044;45.148;39.604;2023-08-31T18:04:45;48.40;;;21.20;;
52031;SDS011;38044;45.148;39.604;2023-08-31T18:07:11;82.45;;;24.33;;
52031;SDS011;38044;45.148;39.604;2023-08-31T18:09:36;47.70;;;21.63;;
52031;SDS011;38044;45.148;39.604;2023-08-31T18:12:05;51.33;;;22.02;;
52031;SDS011;38044;45.148;39.604;2023-08-31T18:14:33;46.50;;;21.60;;
52031;SDS011;38044;45.148;39.604;2023-08-31T18:16:59;44.25;;;20.38;;
52031;SDS011;38044;45.148;39.604;2023-08-31T18:19:26;48.00;;;22.37;;
52031;SDS011;38044;45.148;39.604;2023-08-31T18:21:58;59.45;;;22.85;;
52031;SDS011;38044;45.148;39.604;2023-08-31T18:24:24;48.23;;;19.30;;
52031;SDS011;38044;45.148;39.604;2023-08-31T18:26:50;43.72;;;20.38;;
52031;SDS011;38044;45.148;39.604;2023-08-31T18:29:17;41.40;;;21.05;;
52031;SDS011;38044;45.148;39.604;2023-08-31T18:31:43;56.33;;;21.60;;
52031;SDS011;38044;45.148;39.604;2023-08-31T18:34:09;43.45;;;18.27;;
52031;SDS011;38044;45.148;39.604;2023-08-31T18:36:34;36.53;;;16.33;;
52031;SDS011;38044;45.148;39.604;2023-08-31T18:39:04;28.73;;;16.40;;
52031;SDS011;38044;45.148;39.604;2023-08-31T18:41:36;36.35;;;17.52;;
52031;SDS011;38044;45.148;39.604;2023-08-31T18:44:03;42.00;;;18.13;;
52031;SDS011;38044;45.148;39.604;2023-08-31T18:46:30;34.75;;;17.42;;
52031;SDS011;38044;45.148;39.604;2023-08-31T18:48:56;28.90;;;15.03;;
52031;SDS011;38044;45.148;39.604;2023-08-31T18:51:22;31.30;;;15.35;;
52031;SDS011;38044;45.148;39.604;2023-08-31T18:53:49;32.37;;;15.30;;
52031;SDS011;38044;45.148;39.604;2023-08-31T18:56:15;39.42;;;18.15;;
52031;SDS011;38044;45.148;39.604;2023-08-31T18:58:41;45.90;;;21.95;;
52031;SDS011;38044;45.148;39.604;2023-08-31T19:01:08;48.58;;;24.58;;
52031;SDS011;38044;45.148;39.604;2023-08-31T19:03:35;68.50;;;30.02;;
52031;SDS011;38044;45.148;39.604;2023-08-31T19:06:01;76.50;;;34.90;;
52031;SDS011;38044;45.148;39.604;2023-08-31T19:08:27;87.93;;;39.97;;
52031;SDS011;38044;45.148;39.604;2023-08-31T19:10:53;95.15;;;42.22;;
52031;SDS011;38044;45.148;39.604;2023-08-31T19:13:19;86.82;;;40.20;;
52031;SDS011;38044;45.148;39.604;2023-08-31T19:15:45;85.43;;;38.57;;
52031;SDS011;38044;45.148;39.604;2023-08-31T19:18:11;64.32;;;30.77;;
52031;SDS011;38044;45.148;39.604;2023-08-31T19:20:37;49.77;;;23.07;;
52031;SDS011;38044;45.148;39.604;2023-08-31T19:23:03;47.17;;;22.52;;
52031;SDS011;38044;45.148;39.604;2023-08-31T19:25:30;36.45;;;18.33;;
52031;SDS011;38044;45.148;39.604;2023-08-31T19:28:00;44.30;;;20.30;;
52031;SDS011;38044;45.148;39.604;2023-08-31T19:30:31;43.75;;;20.30;;
52031;SDS011;38044;45.148;39.604;2023-08-31T19:32:57;44.42;;;20.58;;
52031;SDS011;38044;45.148;39.604;2023-08-31T19:35:24;35.00;;;16.08;;
52031;SDS011;38044;45.148;39.604;2023-08-31T19:37:51;32.73;;;15.53;;
52031;SDS011;38044;45.148;39.604;2023-08-31T19:40:18;33.20;;;17.13;;
52031;SDS011;38044;45.148;39.604;2023-08-31T19:42:49;38.57;;;18.70;;
52031;SDS011;38044;45.148;39.604;2023-08-31T19:45:15;33.58;;;15.77;;
52031;SDS011;38044;45.148;39.604;2023-08-31T19:47:43;23.70;;;12.70;;
52031;SDS011;38044;45.148;39.604;2023-08-31T19:50:11;36.33;;;17.15;;
52031;SDS011;38044;45.148;39.604;2023-08-31T19:52:37;40.78;;;19.10;;
52031;SDS011;38044;45.148;39.604;2023-08-31T19:55:03;42.60;;;19.33;;
52031;SDS011;38044;45.148;39.604;2023-08-31T19:57:29;47.08;;;21.98;;
52031;SDS011;38044;45.148;39.604;2023-08-31T19:59:55;48.97;;;22.60;;
52031;SDS011;38044;45.148;39.604;2023-08-31T20:02:21;42.00;;;21.77;;
52031;SDS011;38044;45.148;39.604;2023-08-31T20:04:47;53.50;;;23.58;;
52031;SDS011;38044;45.148;39.604;2023-08-31T20:07:13;45.25;;;22.92;;
52031;SDS011;38044;45.148;39.604;2023-08-31T20:09:39;47.92;;;23.77;;
52031;SDS011;38044;45.148;39.604;2023-08-31T20:12:05;52.83;;;25.30;;
52031;SDS011;38044;45.148;39.604;2023-08-31T20:14:32;56.80;;;27.40;;
52031;SDS011;38044;45.148;39.604;2023-08-31T20:16:58;53.72;;;26.55;;
52031;SDS011;38044;45.148;39.604;2023-08-31T20:19:24;54.47;;;26.23;;
52031;SDS011;38044;45.148;39.604;2023-08-31T20:21:50;52.40;;;25.10;;
52031;SDS011;38044;45.148;39.604;2023-08-31T20:24:16;48.63;;;25.55;;
52031;SDS011;38044;45.148;39.604;2023-08-31T20:26:42;50.92;;;27.02;;
52031;SDS011;38044;45.148;39.604;2023-08-31T20:29:10;46.28;;;25.98;;
52031;SDS011;38044;45.148;39.604;2023-08-31T20:31:40;46.75;;;25.27;;
52031;SDS011;38044;45.148;39.604;2023-08-31T20:34:06;43.72;;;25.25;;
52031;SDS011;38044;45.148;39.604;2023-08-31T20:36:31;49.13;;;25.73;;
52031;SDS011;38044;45.148;39.604;2023-08-31T20:38:58;51.42;;;24.88;;
52031;SDS011;38044;45.148;39.604;2023-08-31T20:41:24;45.72;;;24.95;;
52031;SDS011;38044;45.148;39.604;2023-08-31T20:43:53;48.22;;;25.00;;
52031;SDS011;38044;45.148;39.604;2023-08-31T20:46:19;48.80;;;26.00;;
52031;SDS011;38044;45.148;39.604;2023-08-31T20:48:45;51.83;;;27.98;;
52031;SDS011;38044;45.148;39.604;2023-08-31T20:51:11;52.03;;;28.20;;
52031;SDS011;38044;45.148;39.604;2023-08-31T20:53:37;49.40;;;27.95;;
52031;SDS011;38044;45.148;39.604;2023-08-31T20:58:36;54.53;;;26.67;;
52031;SDS011;38044;45.148;39.604;2023-08-31T21:01:09;54.97;;;25.93;;
52031;SDS011;38044;45.148;39.604;2023-08-31T21:03:37;44.90;;;25.67;;
52031;SDS011;38044;45.148;39.604;2023-08-31T21:06:04;57.40;;;25.97;;
52031;SDS011;38044;45.148;39.604;2023-08-31T21:08:34;48.25;;;24.80;;
52031;SDS011;38044;45.148;39.604;2023-08-31T21:11:01;54.28;;;25.75;;
52031;SDS011;38044;45.148;39.604;2023-08-31T21:13:27;45.67;;;24.23;;
52031;SDS011;38044;45.148;39.604;2023-08-31T21:15:54;46.85;;;24.17;;
52031;SDS011;38044;45.148;39.604;2023-08-31T21:18:20;43.92;;;23.10;;
52031;SDS011;38044;45.148;39.604;2023-08-31T21:20:46;44.33;;;22.90;;
52031;SDS011;38044;45.148;39.604;2023-08-31T21:23:12;40.25;;;22.23;;
52031;SDS011;38044;45.148;39.604;2023-08-31T21:25:42;38.35;;;22.30;;
52031;SDS011;38044;45.148;39.604;2023-08-31T21:28:09;41.72;;;21.92;;
52031;SDS011;38044;45.148;39.604;2023-08-31T21:30:36;40.83;;;21.77;;
52031;SDS011;38044;45.148;39.604;2023-08-31T21:33:05;41.38;;;22.60;;
52031;SDS011;38044;45.148;39.604;2023-08-31T21:35:34;39.67;;;23.02;;
52031;SDS011;38044;45.148;39.604;2023-08-31T21:38:09;36.80;;;20.75;;
52031;SDS011;38044;45.148;39.604;2023-08-31T21:40:35;36.95;;;20.92;;
52031;SDS011;38044;45.148;39.604;2023-08-31T21:43:02;34.50;;;21.20;;
52031;SDS011;38044;45.148;39.604;2023-08-31T21:45:31;38.75;;;21.30;;
52031;SDS011;38044;45.148;39.604;2023-08-31T21:48:07;38.13;;;20.60;;
52031;SDS011;38044;45.148;39.604;2023-08-31T21:50:33;35.50;;;20.67;;
52031;SDS011;38044;45.148;39.604;2023-08-31T21:53:03;36.97;;;20.30;;
52031;SDS011;38044;45.148;39.604;2023-08-31T21:55:32;36.45;;;19.65;;
52031;SDS011;38044;45.148;39.604;2023-08-31T21:57:58;35.40;;;20.30;;
52031;SDS011;38044;45.148;39.604;2023-08-31T22:00:24;36.88;;;20.08;;
52031;SDS011;38044;45.148;39.604;2023-08-31T22:02:51;33.30;;;19.63;;
52031;SDS011;38044;45.148;39.604;2023-08-31T22:05:18;34.28;;;19.58;;
52031;SDS011;38044;45.148;39.604;2023-08-31T22:07:46;34.73;;;19.73;;
52031;SDS011;38044;45.148;39.604;2023-08-31T22:10:13;34.47;;;19.33;;
52031;SDS011;38044;45.148;39.604;2023-08-31T22:12:40;33.77;;;19.90;;
52031;SDS011;38044;45.148;39.604;2023-08-31T22:15:18;33.07;;;16.47;;
52031;SDS011;38044;45.148;39.604;2023-08-31T22:17:45;30.63;;;19.08;;
52031;SDS011;38044;45.148;39.604;2023-08-31T22:20:13;32.10;;;18.70;;
52031;SDS011;38044;45.148;39.604;2023-08-31T22:22:40;33.83;;;18.13;;
52031;SDS011;38044;45.148;39.604;2023-08-31T22:25:07;32.67;;;18.00;;
52031;SDS011;38044;45.148;39.604;2023-08-31T22:27:35;33.88;;;18.00;;
52031;SDS011;38044;45.148;39.604;2023-08-31T22:30:01;31.75;;;17.55;;
52031;SDS011;38044;45.148;39.604;2023-08-31T22:32:28;36.25;;;18.25;;
52031;SDS011;38044;45.148;39.604;2023-08-31T22:34:54;30.30;;;16.33;;
52031;SDS011;38044;45.148;39.604;2023-08-31T22:37:20;29.17;;;15.00;;
52031;SDS011;38044;45.148;39.604;2023-08-31T22:39:46;28.70;;;15.40;;
52031;SDS011;38044;45.148;39.604;2023-08-31T22:42:12;27.67;;;14.98;;
52031;SDS011;38044;45.148;39.604;2023-08-31T22:44:37;29.47;;;16.03;;
52031;SDS011;38044;45.148;39.604;2023-08-31T22:47:03;28.08;;;15.90;;
52031;SDS011;38044;45.148;39.604;2023-08-31T22:49:29;30.25;;;14.77;;
52031;SDS011;38044;45.148;39.604;2023-08-31T22:51:55;31.43;;;15.10;;
52031;SDS011;38044;45.148;39.604;2023-08-31T22:54:21;30.58;;;14.52;;
52031;SDS011;38044;45.148;39.604;2023-08-31T22:56:47;24.50;;;15.75;;
52031;SDS011;38044;45.148;39.604;2023-08-31T22:59:16;27.93;;;15.10;;
52031;SDS011;38044;45.148;39.604;2023-08-31T23:01:42;27.40;;;14.05;;
52031;SDS011;38044;45.148;39.604;2023-08-31T23:04:07;26.33;;;14.90;;
52031;SDS011;38044;45.148;39.604;2023-08-31T23:06:33;31.93;;;14.73;;
52031;SDS011;38044;45.148;39.604;2023-08-31T23:08:59;27.27;;;15.43;;
52031;SDS011;38044;45.148;39.604;2023-08-31T23:11:25;28.92;;;15.52;;
52031;SDS011;38044;45.148;39.604;2023-08-31T23:13:55;28.77;;;15.98;;
52031;SDS011;38044;45.148;39.604;2023-08-31T23:16:21;30.17;;;16.67;;
52031;SDS011;38044;45.148;39.604;2023-08-31T23:18:47;27.73;;;16.05;;
52031;SDS011;38044;45.148;39.604;2023-08-31T23:21:13;28.50;;;15.77;;
52031;SDS011;38044;45.148;39.604;2023-08-31T23:23:39;24.00;;;15.23;;
52031;SDS011;38044;45.148;39.604;2023-08-31T23:26:05;29.05;;;15.52;;
52031;SDS011;38044;45.148;39.604;2023-08-31T23:28:30;26.70;;;15.50;;
52031;SDS011;38044;45.148;39.604;2023-08-31T23:30:57;31.98;;;15.80;;
52031;SDS011;38044;45.148;39.604;2023-08-31T23:33:23;29.77;;;16.30;;
52031;SDS011;38044;45.148;39.604;2023-08-31T23:35:49;29.07;;;16.00;;
52031;SDS011;38044;45.148;39.604;2023-08-31T23:38:17;29.77;;;16.33;;
52031;SDS011;38044;45.148;39.604;2023-08-31T23:40:43;30.42;;;15.13;;
52031;SDS011;38044;45.148;39.604;2023-08-31T23:43:09;30.33;;;15.97;;
52031;SDS011;38044;45.148;39.604;2023-08-31T23:45:35;31.88;;;16.13;;
52031;SDS011;38044;45.148;39.604;2023-08-31T23:48:01;41.80;;;16.67;;
52031;SDS011;38044;45.148;39.604;2023-08-31T23:50:27;33.40;;;16.70;;
52031;SDS011;38044;45.148;39.604;2023-08-31T23:52:53;37.80;;;17.60;;
52031;SDS011;38044;45.148;39.604;2023-08-31T23:55:19;29.83;;;15.60;;
52031;SDS011;38044;45.148;39.604;2023-08-31T23:57:45;29.02;;;16.50;;
